createdAt,value
2022-11-06T00:00:45.073Z,90.73
2022-11-06T00:03:12.167Z,91.04
2022-11-06T00:06:01.443Z,91.22
2022-11-06T00:08:30.892Z,91.39
2022-11-06T00:10:57.572Z,91.29
2022-11-06T00:13:24.602Z,91.33
2022-11-06T00:15:51.149Z,91.58
2022-11-06T00:18:17.788Z,91.72
2022-11-06T00:20:44.459Z,91.83
2022-11-06T00:23:10.988Z,91.69
2022-11-06T00:25:40.989Z,91.81
2022-11-06T00:28:07.520Z,91.65
2022-11-06T00:30:34.028Z,91.55
2022-11-06T00:33:00.605Z,92.00
2022-11-06T00:35:27.124Z,91.70
2022-11-06T00:37:54.461Z,91.83
2022-11-06T00:40:20.964Z,92.29
2022-11-06T00:42:47.502Z,92.17
2022-11-06T00:45:13.956Z,92.67
2022-11-06T00:47:40.425Z,92.35
2022-11-06T00:50:07.413Z,92.18
2022-11-06T00:52:33.948Z,92.59
2022-11-06T00:55:00.467Z,92.76
2022-11-06T00:57:30.053Z,92.97
2022-11-06T00:59:56.557Z,93.17
2022-11-06T01:02:23.301Z,92.94
2022-11-06T01:04:49.905Z,92.83
2022-11-06T01:07:16.451Z,92.97
2022-11-06T01:09:43.017Z,93.07
2022-11-06T01:12:13.908Z,92.83
2022-11-06T01:14:41.729Z,92.95
2022-11-06T01:17:08.629Z,92.34
2022-11-06T01:19:35.118Z,92.95
2022-11-06T01:22:01.843Z,92.34
2022-11-06T01:24:29.036Z,92.93
2022-11-06T01:29:43.175Z,92.53
2022-11-06T01:32:10.223Z,92.49
2022-11-06T01:34:36.950Z,91.85
2022-11-06T01:37:03.618Z,92.03
2022-11-06T01:39:30.532Z,91.86
2022-11-06T01:41:57.173Z,91.27
2022-11-06T01:44:35.768Z,91.43
2022-11-06T01:47:04.844Z,91.47
2022-11-06T01:49:37.391Z,91.22
2022-11-06T01:52:10.463Z,91.07
2022-11-06T01:54:40.147Z,90.85
2022-11-06T01:57:07.521Z,91.08
2022-11-06T01:59:37.434Z,90.76
2022-11-06T02:02:05.081Z,90.95
2022-11-06T02:04:38.608Z,90.38
2022-11-06T02:07:05.414Z,90.45
2022-11-06T02:09:34.522Z,90.63
2022-11-06T02:12:11.978Z,90.52
2022-11-06T02:14:44.277Z,90.27
2022-11-06T02:17:22.052Z,90.35
2022-11-06T02:20:18.302Z,89.90
2022-11-06T02:22:53.707Z,89.79
2022-11-06T02:25:35.587Z,89.45
2022-11-06T02:28:11.114Z,89.58
2022-11-06T02:30:44.723Z,89.71
2022-11-06T02:33:22.766Z,89.40
2022-11-06T02:35:56.476Z,89.66
2022-11-06T02:38:28.336Z,89.51
2022-11-06T02:40:58.927Z,89.67
2022-11-06T02:43:32.591Z,89.32
2022-11-06T02:46:21.611Z,88.81
2022-11-06T02:48:53.328Z,89.27
2022-11-06T02:51:25.626Z,88.87
2022-11-06T02:53:54.681Z,89.20
2022-11-06T02:56:27.170Z,88.76
2022-11-06T02:59:02.185Z,89.17
2022-11-06T03:01:37.712Z,88.79
2022-11-06T03:04:13.373Z,88.42
2022-11-06T03:06:45.490Z,88.90
2022-11-06T03:09:20.472Z,88.88
2022-11-06T03:12:00.483Z,88.88
2022-11-06T03:14:44.539Z,88.66
2022-11-06T03:17:35.636Z,88.55
2022-11-06T03:20:23.765Z,89.22
2022-11-06T03:23:27.498Z,88.62
2022-11-06T03:26:15.367Z,88.78
2022-11-06T03:29:02.895Z,88.70
2022-11-06T03:31:37.746Z,89.09
2022-11-06T03:34:11.308Z,88.94
2022-11-06T03:36:42.598Z,88.48
2022-11-06T03:39:15.206Z,88.44
2022-11-06T03:41:45.918Z,88.54
2022-11-06T03:44:17.906Z,88.27
2022-11-06T03:46:49.636Z,88.04
2022-11-06T03:49:22.924Z,88.32
2022-11-06T03:51:56.104Z,88.71
2022-11-06T03:54:31.613Z,88.98
2022-11-06T03:57:04.314Z,88.61
2022-11-06T03:59:35.719Z,88.77
2022-11-06T04:02:03.545Z,88.56
2022-11-06T04:04:38.000Z,88.92
2022-11-06T04:07:24.581Z,89.38
2022-11-06T04:10:17.899Z,89.47
2022-11-06T04:13:06.118Z,89.03
2022-11-06T04:15:38.676Z,89.40
2022-11-06T04:18:13.362Z,89.66
2022-11-06T04:21:08.217Z,89.75
2022-11-06T04:24:36.244Z,89.02
2022-11-06T04:27:23.678Z,89.11
2022-11-06T04:30:20.174Z,89.85
2022-11-06T04:33:01.713Z,90.11
2022-11-06T04:35:45.800Z,90.13
2022-11-06T04:38:18.281Z,90.90
2022-11-06T04:41:22.252Z,90.84
2022-11-06T04:43:58.759Z,91.33
2022-11-06T04:46:44.094Z,91.91
2022-11-06T04:49:12.787Z,92.02
2022-11-06T04:51:40.904Z,92.03
2022-11-06T04:54:10.195Z,92.73
2022-11-06T04:56:42.864Z,92.76
2022-11-06T04:59:15.896Z,93.06
2022-11-06T05:01:42.466Z,93.36
2022-11-06T05:04:09.613Z,93.55
2022-11-06T05:06:36.196Z,93.82
2022-11-06T05:09:03.204Z,93.60
2022-11-06T05:11:29.708Z,93.91
2022-11-06T05:13:56.614Z,94.19
2022-11-06T05:16:23.186Z,93.97
2022-11-06T05:18:49.880Z,93.93
2022-11-06T05:21:35.326Z,94.02
2022-11-06T05:24:02.007Z,94.23
2022-11-06T05:26:28.591Z,93.96
2022-11-06T05:28:55.119Z,93.82
2022-11-06T05:31:21.773Z,94.14
2022-11-06T05:33:49.534Z,93.89
2022-11-06T05:36:16.471Z,93.82
2022-11-06T05:38:43.196Z,93.53
2022-11-06T05:41:09.717Z,93.64
2022-11-06T05:43:36.344Z,93.31
2022-11-06T05:46:03.594Z,93.54
2022-11-06T05:48:30.144Z,93.38
2022-11-06T05:51:04.814Z,93.72
2022-11-06T05:53:34.124Z,93.33
2022-11-06T05:56:01.058Z,93.36
2022-11-06T05:58:28.115Z,93.37
2022-11-06T06:00:55.991Z,93.35
2022-11-06T06:03:22.936Z,92.81
2022-11-06T06:05:50.083Z,92.82
2022-11-06T06:08:16.614Z,92.16
2022-11-06T06:10:45.116Z,91.93
2022-11-06T06:13:12.119Z,91.60
2022-11-06T06:15:39.651Z,91.95
2022-11-06T06:18:06.791Z,91.64
2022-11-06T06:20:34.373Z,91.84
2022-11-06T06:23:01.006Z,91.67
2022-11-06T06:25:28.791Z,91.18
2022-11-06T06:27:56.458Z,91.88
2022-11-06T06:30:24.165Z,90.74
2022-11-06T06:32:51.498Z,90.42
2022-11-06T06:35:18.154Z,90.37
2022-11-06T06:38:00.042Z,90.50
2022-11-06T06:40:27.454Z,90.54
2022-11-06T06:42:58.008Z,90.20
2022-11-06T06:45:26.550Z,90.61
2022-11-06T06:47:53.171Z,90.30
2022-11-06T06:50:20.758Z,89.95
2022-11-06T06:52:50.048Z,89.68
2022-11-06T06:55:17.002Z,89.54
2022-11-06T06:57:43.602Z,89.77
2022-11-06T07:00:10.955Z,89.40
2022-11-06T07:02:37.472Z,89.03
2022-11-06T07:05:04.224Z,89.47
2022-11-06T07:07:32.456Z,88.94
2022-11-06T07:09:59.018Z,88.98
2022-11-06T07:12:25.770Z,89.19
2022-11-06T07:14:52.280Z,89.63
2022-11-06T07:17:18.823Z,89.77
2022-11-06T07:19:45.420Z,88.50
2022-11-06T07:22:13.214Z,89.01
2022-11-06T07:24:39.863Z,88.64
2022-11-06T07:27:06.541Z,88.94
2022-11-06T07:29:33.120Z,88.29
2022-11-06T07:31:59.911Z,88.28
2022-11-06T07:34:26.948Z,88.33
2022-11-06T07:36:56.398Z,88.80
2022-11-06T07:39:25.063Z,88.89
2022-11-06T07:41:51.630Z,89.41
2022-11-06T07:44:18.293Z,89.33
2022-11-06T07:46:44.828Z,89.34
2022-11-06T07:49:11.668Z,89.40
2022-11-06T07:51:38.362Z,89.75
2022-11-06T07:54:04.996Z,90.29
2022-11-06T07:56:31.551Z,89.89
2022-11-06T07:58:58.225Z,90.19
2022-11-06T08:01:24.832Z,90.72
2022-11-06T08:03:51.515Z,90.62
2022-11-06T08:06:18.055Z,90.50
2022-11-06T08:08:44.901Z,90.70
2022-11-06T08:11:12.136Z,90.85
2022-11-06T08:13:39.581Z,90.72
2022-11-06T08:16:14.242Z,90.93
2022-11-06T08:18:41.577Z,90.77
2022-11-06T08:21:08.236Z,90.55
2022-11-06T08:23:35.572Z,90.46
2022-11-06T08:26:04.948Z,90.91
2022-11-06T08:28:31.646Z,90.54
2022-11-06T08:30:58.167Z,90.77
2022-11-06T08:33:24.874Z,90.05
2022-11-06T08:35:51.444Z,89.52
2022-11-06T08:38:18.213Z,89.98
2022-11-06T08:40:49.339Z,89.09
2022-11-06T08:43:19.111Z,89.03
2022-11-06T08:45:45.809Z,89.67
2022-11-06T08:48:12.504Z,88.96
2022-11-06T08:50:40.184Z,88.27
2022-11-06T08:53:07.274Z,88.11
2022-11-06T08:55:36.764Z,87.58
2022-11-06T08:58:04.659Z,88.03
2022-11-06T09:00:31.426Z,86.90
2022-11-06T09:02:59.597Z,86.57
2022-11-06T09:05:26.868Z,86.24
2022-11-06T09:07:54.173Z,84.88
2022-11-06T09:10:20.736Z,84.87
2022-11-06T09:12:48.459Z,85.00
2022-11-06T09:15:15.551Z,83.71
2022-11-06T09:17:47.262Z,83.25
2022-11-06T09:20:15.031Z,83.31
2022-11-06T09:22:42.115Z,82.75
2022-11-06T09:25:10.559Z,82.86
2022-11-06T09:27:47.846Z,82.42
2022-11-06T09:30:17.038Z,83.26
2022-11-06T09:32:54.804Z,82.21
2022-11-06T09:35:23.401Z,80.60
2022-11-06T09:37:50.210Z,80.18
2022-11-06T09:40:29.241Z,81.46
2022-11-06T09:43:08.100Z,80.51
2022-11-06T09:45:39.714Z,79.63
2022-11-06T09:48:24.089Z,79.87
2022-11-06T09:51:00.659Z,79.61
2022-11-06T09:53:35.157Z,79.89
2022-11-06T09:56:04.541Z,79.08
2022-11-06T09:58:38.635Z,78.46
2022-11-06T10:01:24.471Z,76.17
2022-11-06T10:03:58.906Z,76.81
2022-11-06T10:06:27.580Z,76.23
2022-11-06T10:09:02.458Z,76.35
2022-11-06T10:11:50.132Z,75.95
2022-11-06T10:14:40.723Z,75.73
2022-11-06T10:17:32.341Z,76.01
2022-11-06T10:20:27.172Z,76.39
2022-11-06T10:23:05.258Z,76.94
2022-11-06T10:25:54.630Z,77.21
2022-11-06T10:28:42.547Z,77.53
2022-11-06T10:31:22.213Z,77.65
2022-11-06T10:34:10.653Z,77.86
2022-11-06T10:36:49.905Z,77.74
2022-11-06T10:39:23.535Z,77.58
2022-11-06T10:41:54.657Z,77.92
2022-11-06T10:44:27.879Z,77.49
2022-11-06T10:47:03.612Z,78.06
2022-11-06T10:49:30.124Z,78.41
2022-11-06T10:52:07.610Z,77.51
2022-11-06T10:54:49.570Z,76.35
2022-11-06T10:57:24.961Z,76.26
2022-11-06T10:59:55.318Z,76.14
2022-11-06T11:02:25.267Z,76.41
2022-11-06T11:04:57.575Z,77.41
2022-11-06T11:07:29.301Z,77.18
2022-11-06T11:09:55.874Z,76.34
2022-11-06T11:12:31.126Z,76.48
2022-11-06T11:15:16.169Z,76.83
2022-11-06T11:17:43.341Z,76.61
2022-11-06T11:20:33.625Z,76.81
2022-11-06T11:23:22.876Z,77.12
2022-11-06T11:25:52.627Z,77.09
2022-11-06T11:28:36.302Z,77.50
2022-11-06T11:31:10.370Z,77.27
2022-11-06T11:33:38.939Z,77.62
2022-11-06T11:36:07.413Z,76.25
2022-11-06T11:38:40.341Z,74.84
2022-11-06T11:41:11.580Z,74.92
2022-11-06T11:43:38.429Z,73.25
2022-11-06T11:46:10.757Z,74.14
2022-11-06T11:48:53.787Z,73.81
2022-11-06T11:51:29.294Z,73.60
2022-11-06T11:54:02.959Z,73.79
2022-11-06T11:56:58.176Z,74.00
2022-11-06T11:59:32.383Z,73.32
2022-11-06T12:02:12.748Z,73.22
2022-11-06T12:04:45.438Z,73.51
2022-11-06T12:07:22.456Z,72.31
2022-11-06T12:09:49.008Z,72.03
2022-11-06T12:12:34.305Z,72.28
2022-11-06T12:15:03.645Z,72.33
2022-11-06T12:17:31.712Z,71.83
2022-11-06T12:20:00.568Z,71.73
2022-11-06T12:22:33.504Z,71.92
2022-11-06T12:25:09.544Z,71.82
2022-11-06T12:27:43.940Z,71.43
2022-11-06T12:30:20.777Z,70.96
2022-11-06T12:33:03.698Z,70.49
2022-11-06T12:35:39.584Z,70.14
2022-11-06T12:38:44.267Z,69.51
2022-11-06T12:41:17.002Z,69.14
2022-11-06T12:43:46.715Z,68.91
2022-11-06T12:46:32.126Z,68.66
2022-11-06T12:49:17.659Z,68.87
2022-11-06T12:52:09.209Z,69.04
2022-11-06T12:54:51.144Z,69.16
2022-11-06T12:57:26.910Z,69.11
2022-11-06T13:00:14.315Z,69.24
2022-11-06T13:03:02.330Z,69.18
2022-11-06T13:05:47.773Z,69.04
2022-11-06T13:08:44.375Z,68.78
2022-11-06T13:11:36.907Z,68.41
2022-11-06T13:14:25.006Z,67.84
2022-11-06T13:17:08.911Z,67.49
2022-11-06T13:19:58.527Z,67.49
2022-11-06T13:22:46.169Z,67.59
2022-11-06T13:25:46.933Z,67.20
2022-11-06T13:28:16.555Z,66.99
2022-11-06T13:30:44.226Z,67.00
2022-11-06T13:33:10.598Z,66.64
2022-11-06T13:35:41.419Z,66.26
2022-11-06T13:38:16.689Z,65.98
2022-11-06T13:40:53.596Z,66.43
2022-11-06T13:43:26.257Z,66.54
2022-11-06T13:46:16.068Z,66.81
2022-11-06T13:49:05.964Z,66.81
2022-11-06T13:51:46.426Z,66.93
2022-11-06T13:54:39.804Z,66.56
2022-11-06T13:57:15.569Z,66.48
2022-11-06T14:00:05.539Z,66.61
2022-11-06T14:02:57.579Z,66.86
2022-11-06T14:05:49.599Z,67.03
2022-11-06T14:08:30.161Z,66.91
2022-11-06T14:10:58.723Z,66.96
2022-11-06T14:13:36.355Z,67.05
2022-11-06T14:16:14.316Z,67.15
2022-11-06T14:18:41.891Z,67.21
2022-11-06T14:21:49.184Z,67.49
2022-11-06T14:24:34.136Z,67.41
2022-11-06T14:27:11.039Z,67.61
2022-11-06T14:29:42.681Z,67.85
2022-11-06T14:32:21.515Z,67.98
2022-11-06T14:34:48.423Z,68.06
2022-11-06T14:37:18.021Z,68.33
2022-11-06T14:39:56.937Z,68.01
2022-11-06T14:42:27.083Z,67.66
2022-11-06T14:44:55.773Z,67.31
2022-11-06T14:47:39.631Z,67.14
2022-11-06T14:50:34.672Z,67.47
2022-11-06T14:53:03.848Z,67.03
2022-11-06T14:55:55.998Z,67.44
2022-11-06T14:58:25.279Z,67.72
2022-11-06T15:00:58.406Z,67.87
2022-11-06T15:03:30.163Z,68.18
2022-11-06T15:06:06.391Z,68.33
2022-11-06T15:08:45.201Z,68.22
2022-11-06T15:11:29.885Z,68.53
2022-11-06T15:14:02.039Z,68.54
2022-11-06T15:16:44.476Z,68.85
2022-11-06T15:19:21.422Z,68.79
2022-11-06T15:22:12.806Z,69.05
2022-11-06T15:24:45.621Z,69.17
2022-11-06T15:27:23.514Z,69.65
2022-11-06T15:29:55.801Z,69.78
2022-11-06T15:32:25.863Z,70.12
2022-11-06T15:34:58.546Z,70.09
2022-11-06T15:37:37.582Z,70.57
2022-11-06T15:40:09.757Z,71.05
2022-11-06T15:42:39.013Z,71.28
2022-11-06T15:45:20.654Z,71.53
2022-11-06T15:48:01.270Z,71.86
2022-11-06T15:50:30.427Z,71.91
2022-11-06T15:53:12.128Z,71.84
2022-11-06T15:55:45.430Z,72.03
2022-11-06T15:58:30.837Z,72.40
2022-11-06T16:01:00.072Z,73.40
2022-11-06T16:03:31.552Z,73.70
2022-11-06T16:06:02.613Z,74.05
2022-11-06T16:08:31.264Z,73.91
2022-11-06T16:10:58.955Z,74.64
2022-11-06T16:13:29.072Z,74.94
2022-11-06T16:15:59.259Z,75.23
2022-11-06T16:18:27.652Z,75.75
2022-11-06T16:21:20.532Z,75.80
2022-11-06T16:23:57.444Z,76.27
2022-11-06T16:26:36.357Z,76.38
2022-11-06T16:29:18.247Z,76.76
2022-11-06T16:31:48.655Z,76.78
2022-11-06T16:34:32.992Z,77.04
2022-11-06T16:37:29.700Z,77.04
2022-11-06T16:40:00.194Z,77.19
2022-11-06T16:42:38.724Z,77.03
2022-11-06T16:45:08.003Z,76.73
2022-11-06T16:47:34.679Z,76.80
2022-11-06T16:50:02.668Z,76.92
2022-11-06T16:52:35.529Z,76.78
2022-11-06T16:55:03.546Z,76.87
2022-11-06T16:57:46.530Z,77.16
2022-11-06T17:00:19.256Z,76.80
2022-11-06T17:02:52.899Z,77.03
2022-11-06T17:05:22.785Z,76.90
2022-11-06T17:08:05.817Z,77.06
2022-11-06T17:10:39.116Z,77.19
2022-11-06T17:13:19.938Z,76.34
2022-11-06T17:16:07.112Z,76.42
2022-11-06T17:18:36.356Z,77.03
2022-11-06T17:21:05.995Z,77.12
2022-11-06T17:23:34.906Z,76.32
2022-11-06T17:26:06.300Z,75.61
2022-11-06T17:28:32.839Z,75.53
2022-11-06T17:30:59.462Z,74.90
2022-11-06T17:33:26.015Z,74.30
2022-11-06T17:35:52.724Z,74.06
2022-11-06T17:38:19.311Z,73.22
2022-11-06T17:40:45.910Z,73.31
2022-11-06T17:43:13.277Z,73.07
2022-11-06T17:45:42.974Z,72.49
2022-11-06T17:48:09.714Z,71.95
2022-11-06T17:50:56.266Z,71.56
2022-11-06T17:53:22.859Z,71.21
2022-11-06T17:55:49.444Z,70.69
2022-11-06T17:58:16.426Z,71.09
2022-11-06T18:00:43.493Z,70.37
2022-11-06T18:03:17.989Z,69.85
2022-11-06T18:05:45.397Z,70.10
2022-11-06T18:08:13.406Z,69.49
2022-11-06T18:10:40.895Z,68.95
2022-11-06T18:13:07.695Z,69.29
2022-11-06T18:15:35.532Z,69.35
2022-11-06T18:18:02.456Z,69.12
2022-11-06T18:20:29.153Z,69.40
2022-11-06T18:22:55.703Z,69.28
2022-11-06T18:25:22.220Z,68.74
2022-11-06T18:27:48.746Z,69.04
2022-11-06T18:30:15.606Z,68.66
2022-11-06T18:32:42.311Z,69.06
2022-11-06T18:35:11.465Z,68.83
2022-11-06T18:37:38.253Z,69.07
2022-11-06T18:40:05.618Z,68.32
2022-11-06T18:42:32.231Z,68.61
2022-11-06T18:44:58.923Z,68.88
2022-11-06T18:47:25.538Z,69.32
2022-11-06T18:49:52.187Z,68.23
2022-11-06T18:52:38.034Z,67.91
2022-11-06T18:55:05.886Z,67.69
2022-11-06T18:57:32.491Z,68.10
2022-11-06T18:59:59.154Z,67.96
2022-11-06T19:02:25.903Z,67.68
2022-11-06T19:04:53.015Z,67.34
2022-11-06T19:07:20.062Z,67.60
2022-11-06T19:09:46.697Z,67.59
2022-11-06T19:12:13.443Z,67.55
2022-11-06T19:14:40.313Z,67.47
2022-11-06T19:17:07.118Z,67.06
2022-11-06T19:19:33.887Z,67.04
2022-11-06T19:22:00.402Z,67.21
2022-11-06T19:24:27.221Z,67.29
2022-11-06T19:26:53.780Z,67.13
2022-11-06T19:29:20.631Z,67.15
2022-11-06T19:31:47.158Z,66.71
2022-11-06T19:34:17.185Z,66.63
2022-11-06T19:36:43.841Z,66.29
2022-11-06T19:39:11.910Z,66.82
2022-11-06T19:41:39.308Z,67.00
2022-11-06T19:44:09.353Z,66.40
2022-11-06T19:46:37.165Z,66.93
2022-11-06T19:49:05.621Z,66.32
2022-11-06T19:51:33.397Z,65.96
2022-11-06T19:54:01.777Z,66.08
2022-11-06T19:56:28.737Z,65.93
2022-11-06T19:58:55.720Z,65.96
2022-11-06T20:01:22.583Z,66.93
2022-11-06T20:03:50.113Z,66.32
2022-11-06T20:06:17.384Z,66.29
2022-11-06T20:08:47.958Z,66.70
2022-11-06T20:11:15.816Z,66.74
2022-11-06T20:13:43.313Z,66.75
2022-11-06T20:16:19.859Z,66.16
2022-11-06T20:18:54.632Z,66.69
2022-11-06T20:21:23.536Z,67.06
2022-11-06T20:23:50.091Z,67.67
2022-11-06T20:26:19.200Z,68.18
2022-11-06T20:28:48.609Z,68.36
2022-11-06T20:31:19.529Z,69.83
2022-11-06T20:33:47.140Z,69.87
2022-11-06T20:36:23.933Z,70.83
2022-11-06T20:38:57.278Z,71.95
2022-11-06T20:41:24.842Z,72.41
2022-11-06T20:43:52.493Z,72.89
2022-11-06T20:46:21.951Z,73.76
2022-11-06T20:48:49.593Z,75.41
2022-11-06T20:51:21.982Z,75.84
2022-11-06T20:53:50.310Z,77.14
2022-11-06T20:56:20.500Z,77.84
2022-11-06T20:58:48.404Z,78.41
2022-11-06T21:01:20.204Z,78.76
2022-11-06T21:03:49.478Z,79.58
2022-11-06T21:06:18.683Z,81.16
2022-11-06T21:08:46.331Z,80.31
2022-11-06T21:11:17.149Z,81.15
2022-11-06T21:13:48.263Z,81.64
2022-11-06T21:16:21.460Z,82.36
2022-11-06T21:18:51.625Z,82.80
2022-11-06T21:21:22.620Z,82.78
2022-11-06T21:23:50.835Z,83.41
2022-11-06T21:26:20.413Z,83.74
2022-11-06T21:28:47.290Z,83.89
2022-11-06T21:31:17.258Z,84.42
2022-11-06T21:33:47.450Z,84.68
2022-11-06T21:36:17.238Z,84.74
2022-11-06T21:38:44.412Z,84.27
2022-11-06T21:41:14.258Z,84.59
2022-11-06T21:43:41.657Z,84.06
2022-11-06T21:46:11.236Z,84.43
2022-11-06T21:48:47.310Z,84.75
2022-11-06T21:51:23.224Z,84.84
2022-11-06T21:54:09.988Z,84.75
2022-11-06T21:56:38.955Z,85.11
2022-11-06T21:59:08.727Z,85.52
2022-11-06T22:01:39.555Z,85.60
2022-11-06T22:04:06.672Z,85.76
2022-11-06T22:06:33.487Z,85.50
2022-11-06T22:09:03.203Z,85.31
2022-11-06T22:11:35.987Z,84.64
2022-11-06T22:14:10.090Z,83.64
2022-11-06T22:16:39.146Z,83.22
2022-11-06T22:19:07.264Z,82.92
2022-11-06T22:21:36.609Z,82.17
2022-11-06T22:24:03.629Z,82.11
2022-11-06T22:26:32.963Z,82.11
2022-11-06T22:29:01.905Z,82.76
2022-11-06T22:31:29.307Z,81.78
2022-11-06T22:33:56.181Z,80.83
2022-11-06T22:36:24.007Z,81.06
2022-11-06T22:38:51.130Z,80.82
2022-11-06T22:41:23.730Z,80.25
2022-11-06T22:43:51.239Z,79.91
2022-11-06T22:46:23.061Z,80.00
2022-11-06T22:48:51.118Z,79.63
2022-11-06T22:51:24.338Z,79.69
2022-11-06T22:53:51.830Z,80.26
2022-11-06T22:56:19.776Z,80.10
2022-11-06T22:58:46.799Z,79.85
2022-11-06T23:01:14.003Z,80.35
2022-11-06T23:03:40.894Z,79.86
2022-11-06T23:06:09.699Z,79.64
2022-11-06T23:08:39.732Z,79.27
2022-11-06T23:11:10.982Z,78.87
2022-11-06T23:13:38.278Z,79.13
2022-11-06T23:16:11.942Z,79.66
2022-11-06T23:18:39.390Z,79.73
2022-11-06T23:21:17.034Z,79.31
2022-11-06T23:23:44.696Z,79.15
2022-11-06T23:26:13.743Z,79.67
2022-11-06T23:28:40.387Z,79.76
2022-11-06T23:31:08.682Z,79.54
2022-11-06T23:33:35.488Z,79.94
2022-11-06T23:36:07.130Z,80.06
2022-11-06T23:38:33.753Z,79.77
2022-11-06T23:41:26.853Z,79.04
2022-11-06T23:43:54.485Z,79.55
2022-11-06T23:46:22.640Z,79.13
2022-11-06T23:48:49.153Z,79.97
2022-11-06T23:51:15.691Z,79.87
2022-11-06T23:53:42.370Z,79.77
2022-11-06T23:56:11.164Z,79.88
2022-11-06T23:58:38.837Z,80.19
